Woodlawn, Missouri
Current Conditions -  °F | °C
As of 6:35 PM on Tuesday 25 Nov 2014 (Local Time) from KVER Reporting Station
Clear Clear  
Wind Chill: 33°   Ceiling: Unl
Heat Index: 33°   Visibility: 10mi
Dew Point: 17°   Wind: 3mph
Humidity: 52%   Direction: 170°S
Pressure: 30.13"   Gusts: NA
Location:  39.4792°N, 92.217°W
Report Text: KVER 260035Z AUTO 17003KT 10SM CLR 00/M09 A3013 RMK AO2 T00031086
Loading
Personal Weather Stations






























Interactive Weather Map New forecast layout! Learn more

10-Day Weather Forecast

Advertisements
Track Severe Weather on mobile